sensor_id;sensor_type;location;lat;lon;timestamp;pressure;altitude;pressure_sealevel;temperature;humidity
53011;BME280;42803;55.762;38.084;2023-05-29T00:01:43;99773.03;;;7.98;100.00
53011;BME280;42803;55.762;38.084;2023-05-29T00:04:12;99782.75;;;8.00;100.00
53011;BME280;42803;55.762;38.084;2023-05-29T00:06:43;99771.34;;;7.98;100.00
53011;BME280;42803;55.762;38.084;2023-05-29T00:09:12;99775.97;;;7.92;100.00
53011;BME280;42803;55.762;38.084;2023-05-29T00:11:41;99779.19;;;7.90;100.00
53011;BME280;42803;55.762;38.084;2023-05-29T00:14:10;99784.25;;;7.88;100.00
53011;BME280;42803;55.762;38.084;2023-05-29T00:16:41;99789.72;;;7.91;100.00
53011;BME280;42803;55.762;38.084;2023-05-29T00:19:12;99786.84;;;7.88;100.00
53011;BME280;42803;55.762;38.084;2023-05-29T00:21:41;99792.94;;;7.89;100.00
53011;BME280;42803;55.762;38.084;2023-05-29T00:24:11;99785.31;;;7.90;100.00
53011;BME280;42803;55.762;38.084;2023-05-29T00:26:40;99789.44;;;7.88;100.00
53011;BME280;42803;55.762;38.084;2023-05-29T00:29:09;99786.44;;;7.84;100.00
53011;BME280;42803;55.762;38.084;2023-05-29T00:31:38;99789.66;;;7.81;100.00
53011;BME280;42803;55.762;38.084;2023-05-29T00:34:10;99793.84;;;7.70;100.00
53011;BME280;42803;55.762;38.084;2023-05-29T00:36:39;99800.44;;;7.67;100.00
53011;BME280;42803;55.762;38.084;2023-05-29T00:39:08;99798.91;;;7.69;100.00
53011;BME280;42803;55.762;38.084;2023-05-29T00:41:39;99797.66;;;7.74;100.00
53011;BME280;42803;55.762;38.084;2023-05-29T00:44:08;99795.34;;;7.77;100.00
53011;BME280;42803;55.762;38.084;2023-05-29T00:46:49;99799.00;;;7.79;100.00
53011;BME280;42803;55.762;38.084;2023-05-29T00:49:19;99797.72;;;7.84;100.00
53011;BME280;42803;55.762;38.084;2023-05-29T00:51:50;99796.22;;;7.86;100.00
53011;BME280;42803;55.762;38.084;2023-05-29T00:54:22;99797.38;;;7.90;100.00
53011;BME280;42803;55.762;38.084;2023-05-29T00:56:54;99804.53;;;7.92;100.00
53011;BME280;42803;55.762;38.084;2023-05-29T00:59:24;99803.22;;;7.87;100.00
53011;BME280;42803;55.762;38.084;2023-05-29T01:01:55;99800.13;;;7.91;100.00
53011;BME280;42803;55.762;38.084;2023-05-29T01:04:26;99806.25;;;7.92;100.00
53011;BME280;42803;55.762;38.084;2023-05-29T01:06:55;99809.53;;;7.99;100.00
53011;BME280;42803;55.762;38.084;2023-05-29T01:09:25;99807.03;;;8.10;100.00
53011;BME280;42803;55.762;38.084;2023-05-29T01:11:59;99808.94;;;8.40;100.00
53011;BME280;42803;55.762;38.084;2023-05-29T01:14:38;99806.72;;;9.13;100.00
53011;BME280;42803;55.762;38.084;2023-05-29T01:17:15;99808.34;;;9.72;100.00
53011;BME280;42803;55.762;38.084;2023-05-29T01:19:58;99811.81;;;10.34;99.17
53011;BME280;42803;55.762;38.084;2023-05-29T01:22:43;99805.66;;;10.86;95.22
53011;BME280;42803;55.762;38.084;2023-05-29T01:25:19;99802.94;;;11.28;92.41
53011;BME280;42803;55.762;38.084;2023-05-29T01:27:53;99795.69;;;11.58;89.78
53011;BME280;42803;55.762;38.084;2023-05-29T01:30:24;99800.69;;;11.88;89.43
53011;BME280;42803;55.762;38.084;2023-05-29T01:32:54;99805.72;;;12.09;87.16
53011;BME280;42803;55.762;38.084;2023-05-29T01:35:23;99810.44;;;12.36;85.04
53011;BME280;42803;55.762;38.084;2023-05-29T01:37:55;99808.72;;;12.72;83.02
53011;BME280;42803;55.762;38.084;2023-05-29T01:40:24;99812.34;;;12.98;81.94
53011;BME280;42803;55.762;38.084;2023-05-29T01:42:54;99809.75;;;13.34;80.82
53011;BME280;42803;55.762;38.084;2023-05-29T01:45:24;99817.13;;;13.65;79.53
53011;BME280;42803;55.762;38.084;2023-05-29T01:47:53;99813.25;;;13.85;78.18
53011;BME280;42803;55.762;38.084;2023-05-29T01:50:23;99813.66;;;14.16;76.68
53011;BME280;42803;55.762;38.084;2023-05-29T01:52:53;99813.66;;;14.54;75.08
53011;BME280;42803;55.762;38.084;2023-05-29T01:55:22;99810.50;;;15.00;72.62
53011;BME280;42803;55.762;38.084;2023-05-29T01:57:52;99816.06;;;15.32;70.20
53011;BME280;42803;55.762;38.084;2023-05-29T02:00:24;99809.31;;;15.51;70.71
53011;BME280;42803;55.762;38.084;2023-05-29T02:02:53;99811.91;;;15.92;67.69
53011;BME280;42803;55.762;38.084;2023-05-29T02:05:22;99810.47;;;16.56;67.41
53011;BME280;42803;55.762;38.084;2023-05-29T02:07:51;99807.50;;;16.96;65.05
53011;BME280;42803;55.762;38.084;2023-05-29T02:10:20;99815.34;;;17.42;63.26
53011;BME280;42803;55.762;38.084;2023-05-29T02:12:50;99818.25;;;17.63;60.29
53011;BME280;42803;55.762;38.084;2023-05-29T02:15:19;99817.41;;;17.97;61.60
53011;BME280;42803;55.762;38.084;2023-05-29T02:17:50;99816.34;;;18.10;59.22
53011;BME280;42803;55.762;38.084;2023-05-29T02:20:19;99821.53;;;18.24;59.55
53011;BME280;42803;55.762;38.084;2023-05-29T02:22:49;99825.44;;;18.67;58.29
53011;BME280;42803;55.762;38.084;2023-05-29T02:25:19;99826.69;;;18.91;57.08
53011;BME280;42803;55.762;38.084;2023-05-29T02:27:48;99817.00;;;18.92;57.46
53011;BME280;42803;55.762;38.084;2023-05-29T02:30:17;99824.09;;;19.11;56.76
53011;BME280;42803;55.762;38.084;2023-05-29T02:32:47;99828.13;;;19.40;55.94
53011;BME280;42803;55.762;38.084;2023-05-29T02:35:18;99827.13;;;19.38;53.46
53011;BME280;42803;55.762;38.084;2023-05-29T02:37:50;99829.88;;;19.77;55.91
53011;BME280;42803;55.762;38.084;2023-05-29T02:40:19;99830.56;;;20.11;52.37
53011;BME280;42803;55.762;38.084;2023-05-29T02:42:49;99823.00;;;20.20;52.22
53011;BME280;42803;55.762;38.084;2023-05-29T02:45:18;99829.09;;;20.39;52.36
53011;BME280;42803;55.762;38.084;2023-05-29T02:47:47;99829.22;;;20.61;50.18
53011;BME280;42803;55.762;38.084;2023-05-29T02:50:18;99825.53;;;20.58;49.73
53011;BME280;42803;55.762;38.084;2023-05-29T02:52:49;99820.34;;;20.82;51.86
53011;BME280;42803;55.762;38.084;2023-05-29T02:55:18;99822.31;;;21.08;52.37
53011;BME280;42803;55.762;38.084;2023-05-29T02:57:47;99825.06;;;20.89;51.97
53011;BME280;42803;55.762;38.084;2023-05-29T03:00:20;99825.78;;;20.64;51.36
53011;BME280;42803;55.762;38.084;2023-05-29T03:02:49;99825.25;;;21.16;49.34
53011;BME280;42803;55.762;38.084;2023-05-29T03:05:20;99832.25;;;20.91;48.24
53011;BME280;42803;55.762;38.084;2023-05-29T03:07:49;99844.19;;;19.07;51.66
53011;BME280;42803;55.762;38.084;2023-05-29T03:10:18;99847.78;;;17.56;54.16
53011;BME280;42803;55.762;38.084;2023-05-29T03:12:48;99856.00;;;16.54;57.80
53011;BME280;42803;55.762;38.084;2023-05-29T03:15:19;99852.06;;;16.18;62.38
53011;BME280;42803;55.762;38.084;2023-05-29T03:17:49;99850.41;;;16.05;63.27
53011;BME280;42803;55.762;38.084;2023-05-29T03:20:25;99866.06;;;16.17;62.13
53011;BME280;42803;55.762;38.084;2023-05-29T03:22:58;99853.25;;;16.08;61.67
53011;BME280;42803;55.762;38.084;2023-05-29T03:25:28;99858.00;;;15.86;62.80
53011;BME280;42803;55.762;38.084;2023-05-29T03:27:57;99863.84;;;16.09;62.63
53011;BME280;42803;55.762;38.084;2023-05-29T03:30:27;99864.69;;;16.08;62.61
53011;BME280;42803;55.762;38.084;2023-05-29T03:32:57;99867.59;;;16.28;62.08
53011;BME280;42803;55.762;38.084;2023-05-29T03:35:51;99874.06;;;16.48;61.90
53011;BME280;42803;55.762;38.084;2023-05-29T03:38:20;99868.00;;;16.34;62.42
53011;BME280;42803;55.762;38.084;2023-05-29T03:40:50;99880.25;;;16.33;62.63
53011;BME280;42803;55.762;38.084;2023-05-29T03:43:19;99872.63;;;16.38;62.51
53011;BME280;42803;55.762;38.084;2023-05-29T03:45:48;99866.72;;;16.57;61.61
53011;BME280;42803;55.762;38.084;2023-05-29T03:48:17;99876.25;;;16.55;61.27
53011;BME280;42803;55.762;38.084;2023-05-29T03:50:48;99875.78;;;16.47;62.23
53011;BME280;42803;55.762;38.084;2023-05-29T03:53:27;99875.28;;;16.53;61.65
53011;BME280;42803;55.762;38.084;2023-05-29T03:55:57;99881.44;;;16.39;60.70
53011;BME280;42803;55.762;38.084;2023-05-29T03:58:26;99888.16;;;16.33;60.56
53011;BME280;42803;55.762;38.084;2023-05-29T04:00:56;99888.16;;;16.33;61.66
53011;BME280;42803;55.762;38.084;2023-05-29T04:03:28;99889.59;;;16.28;60.79
53011;BME280;42803;55.762;38.084;2023-05-29T04:05:59;99889.50;;;16.27;60.55
53011;BME280;42803;55.762;38.084;2023-05-29T04:08:29;99892.78;;;16.38;59.26
53011;BME280;42803;55.762;38.084;2023-05-29T04:10:59;99898.41;;;16.44;60.40
53011;BME280;42803;55.762;38.084;2023-05-29T04:13:45;99893.19;;;16.73;60.07
53011;BME280;42803;55.762;38.084;2023-05-29T04:16:15;99892.38;;;18.32;55.48
53011;BME280;42803;55.762;38.084;2023-05-29T04:18:44;99895.75;;;19.51;51.50
53011;BME280;42803;55.762;38.084;2023-05-29T04:21:13;99895.16;;;18.35;52.81
53011;BME280;42803;55.762;38.084;2023-05-29T04:23:44;99905.53;;;17.04;54.43
53011;BME280;42803;55.762;38.084;2023-05-29T04:26:13;99896.31;;;16.23;57.75
53011;BME280;42803;55.762;38.084;2023-05-29T04:28:42;99902.97;;;15.89;57.99
53011;BME280;42803;55.762;38.084;2023-05-29T04:31:12;99902.34;;;15.79;58.34
53011;BME280;42803;55.762;38.084;2023-05-29T04:33:44;99909.19;;;15.76;58.84
53011;BME280;42803;55.762;38.084;2023-05-29T04:36:13;99901.50;;;15.66;58.83
53011;BME280;42803;55.762;38.084;2023-05-29T04:39:04;99906.06;;;15.68;58.51
53011;BME280;42803;55.762;38.084;2023-05-29T04:41:35;99912.09;;;15.80;58.63
53011;BME280;42803;55.762;38.084;2023-05-29T04:44:09;99905.19;;;15.82;59.11
53011;BME280;42803;55.762;38.084;2023-05-29T04:46:45;99912.41;;;15.72;59.04
53011;BME280;42803;55.762;38.084;2023-05-29T04:49:15;99912.72;;;15.63;57.18
53011;BME280;42803;55.762;38.084;2023-05-29T04:51:44;99917.06;;;15.63;58.02
53011;BME280;42803;55.762;38.084;2023-05-29T04:54:15;99922.56;;;15.66;57.85
53011;BME280;42803;55.762;38.084;2023-05-29T04:57:04;99917.38;;;15.67;58.40
53011;BME280;42803;55.762;38.084;2023-05-29T04:59:35;99915.97;;;15.72;58.05
53011;BME280;42803;55.762;38.084;2023-05-29T05:02:23;99922.94;;;15.72;57.01
53011;BME280;42803;55.762;38.084;2023-05-29T05:05:10;99922.22;;;15.74;56.93
53011;BME280;42803;55.762;38.084;2023-05-29T05:07:40;99918.47;;;15.84;55.55
53011;BME280;42803;55.762;38.084;2023-05-29T05:10:11;99922.69;;;15.95;56.50
53011;BME280;42803;55.762;38.084;2023-05-29T05:12:59;99921.72;;;16.08;56.69
53011;BME280;42803;55.762;38.084;2023-05-29T05:15:31;99920.81;;;16.07;55.63
53011;BME280;42803;55.762;38.084;2023-05-29T05:18:18;99925.72;;;16.16;54.59
53011;BME280;42803;55.762;38.084;2023-05-29T05:20:57;99928.19;;;16.28;54.04
53011;BME280;42803;55.762;38.084;2023-05-29T05:23:37;99927.69;;;16.33;53.82
53011;BME280;42803;55.762;38.084;2023-05-29T05:26:25;99920.75;;;16.36;53.06
53011;BME280;42803;55.762;38.084;2023-05-29T05:29:11;99929.50;;;16.35;52.87
53011;BME280;42803;55.762;38.084;2023-05-29T05:31:42;99921.94;;;16.41;51.99
53011;BME280;42803;55.762;38.084;2023-05-29T05:34:11;99927.59;;;16.47;52.56
53011;BME280;42803;55.762;38.084;2023-05-29T05:36:43;99932.78;;;16.45;51.80
53011;BME280;42803;55.762;38.084;2023-05-29T05:39:14;99925.78;;;16.46;52.23
53011;BME280;42803;55.762;38.084;2023-05-29T05:41:48;99930.78;;;16.41;51.92
53011;BME280;42803;55.762;38.084;2023-05-29T05:44:31;99923.84;;;16.43;51.86
53011;BME280;42803;55.762;38.084;2023-05-29T05:47:07;99930.84;;;16.43;51.39
53011;BME280;42803;55.762;38.084;2023-05-29T05:49:37;99934.03;;;16.52;51.65
53011;BME280;42803;55.762;38.084;2023-05-29T05:52:06;99928.50;;;16.62;51.05
53011;BME280;42803;55.762;38.084;2023-05-29T05:54:36;99932.91;;;16.76;50.92
53011;BME280;42803;55.762;38.084;2023-05-29T05:57:07;99927.38;;;16.87;50.41
53011;BME280;42803;55.762;38.084;2023-05-29T05:59:37;99941.94;;;16.95;48.62
53011;BME280;42803;55.762;38.084;2023-05-29T06:02:07;99931.44;;;16.96;48.00
53011;BME280;42803;55.762;38.084;2023-05-29T06:04:37;99940.63;;;17.03;48.56
53011;BME280;42803;55.762;38.084;2023-05-29T06:07:06;99932.28;;;17.10;45.67
53011;BME280;42803;55.762;38.084;2023-05-29T06:09:36;99933.16;;;17.11;44.54
53011;BME280;42803;55.762;38.084;2023-05-29T06:12:08;99936.44;;;17.21;46.21
53011;BME280;42803;55.762;38.084;2023-05-29T06:14:46;99940.97;;;17.24;45.18
53011;BME280;42803;55.762;38.084;2023-05-29T06:17:16;99934.13;;;17.27;45.90
53011;BME280;42803;55.762;38.084;2023-05-29T06:19:49;99933.41;;;17.30;45.87
53011;BME280;42803;55.762;38.084;2023-05-29T06:22:19;99935.88;;;17.27;43.83
53011;BME280;42803;55.762;38.084;2023-05-29T06:24:49;99941.06;;;17.25;45.11
53011;BME280;42803;55.762;38.084;2023-05-29T06:27:19;99947.69;;;17.34;44.01
53011;BME280;42803;55.762;38.084;2023-05-29T06:29:51;99935.59;;;17.22;43.77
53011;BME280;42803;55.762;38.084;2023-05-29T06:32:20;99941.47;;;17.48;43.30
53011;BME280;42803;55.762;38.084;2023-05-29T06:34:51;99938.69;;;17.61;42.38
53011;BME280;42803;55.762;38.084;2023-05-29T06:37:20;99943.97;;;17.61;42.79
53011;BME280;42803;55.762;38.084;2023-05-29T06:39:49;99955.31;;;17.44;41.45
53011;BME280;42803;55.762;38.084;2023-05-29T06:42:20;99957.44;;;17.51;42.50
53011;BME280;42803;55.762;38.084;2023-05-29T06:44:57;99958.91;;;17.61;42.56
53011;BME280;42803;55.762;38.084;2023-05-29T06:47:27;99951.16;;;17.78;43.35
53011;BME280;42803;55.762;38.084;2023-05-29T06:49:56;99958.06;;;17.93;42.79
53011;BME280;42803;55.762;38.084;2023-05-29T06:52:26;99960.75;;;18.09;43.00
53011;BME280;42803;55.762;38.084;2023-05-29T06:55:33;99967.34;;;18.01;42.15
53011;BME280;42803;55.762;38.084;2023-05-29T06:58:05;99952.00;;;17.94;42.17
53011;BME280;42803;55.762;38.084;2023-05-29T07:00:34;99957.28;;;18.10;42.47
53011;BME280;42803;55.762;38.084;2023-05-29T07:03:21;99958.06;;;17.93;41.48
53011;BME280;42803;55.762;38.084;2023-05-29T07:06:08;99959.97;;;17.95;42.55
53011;BME280;42803;55.762;38.084;2023-05-29T07:14:50;99964.34;;;17.95;41.57
53011;BME280;42803;55.762;38.084;2023-05-29T07:17:20;99960.22;;;17.84;41.78
53011;BME280;42803;55.762;38.084;2023-05-29T07:19:59;99952.78;;;17.93;40.63
53011;BME280;42803;55.762;38.084;2023-05-29T07:22:31;99968.81;;;17.96;40.95
53011;BME280;42803;55.762;38.084;2023-05-29T07:25:00;99965.44;;;17.98;40.63
53011;BME280;42803;55.762;38.084;2023-05-29T07:27:31;99962.22;;;18.04;40.51
53011;BME280;42803;55.762;38.084;2023-05-29T07:30:20;99961.47;;;18.07;40.57
53011;BME280;42803;55.762;38.084;2023-05-29T07:32:51;99956.53;;;18.13;40.00
53011;BME280;42803;55.762;38.084;2023-05-29T07:35:21;99960.66;;;18.08;39.14
53011;BME280;42803;55.762;38.084;2023-05-29T07:37:50;99952.06;;;18.12;40.32
53011;BME280;42803;55.762;38.084;2023-05-29T07:40:20;99947.88;;;18.32;40.50
53011;BME280;42803;55.762;38.084;2023-05-29T07:43:25;99952.78;;;18.58;41.13
53011;BME280;42803;55.762;38.084;2023-05-29T07:46:01;99944.03;;;18.75;40.47
53011;BME280;42803;55.762;38.084;2023-05-29T07:48:31;99954.59;;;18.75;40.50
53011;BME280;42803;55.762;38.084;2023-05-29T07:51:00;99948.72;;;18.65;41.72
53011;BME280;42803;55.762;38.084;2023-05-29T07:53:35;99947.13;;;18.85;40.48
53011;BME280;42803;55.762;38.084;2023-05-29T07:56:05;99948.34;;;18.73;41.12
53011;BME280;42803;55.762;38.084;2023-05-29T07:58:34;99951.00;;;18.73;40.34
53011;BME280;42803;55.762;38.084;2023-05-29T08:01:06;99950.38;;;18.63;40.02
53011;BME280;42803;55.762;38.084;2023-05-29T08:03:36;99953.53;;;18.72;40.55
53011;BME280;42803;55.762;38.084;2023-05-29T08:06:29;99954.25;;;19.04;40.81
53011;BME280;42803;55.762;38.084;2023-05-29T08:09:00;99955.66;;;19.31;40.13
53011;BME280;42803;55.762;38.084;2023-05-29T08:11:31;99960.28;;;19.35;40.70
53011;BME280;42803;55.762;38.084;2023-05-29T08:14:00;99951.34;;;19.51;39.84
53011;BME280;42803;55.762;38.084;2023-05-29T08:16:33;99960.03;;;19.48;38.54
53011;BME280;42803;55.762;38.084;2023-05-29T08:19:02;99963.44;;;19.10;38.68
53011;BME280;42803;55.762;38.084;2023-05-29T08:21:32;99958.66;;;19.03;38.41
53011;BME280;42803;55.762;38.084;2023-05-29T08:24:02;99950.78;;;18.87;39.63
53011;BME280;42803;55.762;38.084;2023-05-29T08:26:51;99949.25;;;18.74;39.39
53011;BME280;42803;55.762;38.084;2023-05-29T08:29:20;99950.28;;;18.61;39.51
53011;BME280;42803;55.762;38.084;2023-05-29T08:31:52;99945.75;;;18.75;40.03
53011;BME280;42803;55.762;38.084;2023-05-29T08:34:21;99943.19;;;18.77;39.35
53011;BME280;42803;55.762;38.084;2023-05-29T08:36:52;99942.88;;;18.70;39.12
53011;BME280;42803;55.762;38.084;2023-05-29T08:39:22;99939.22;;;18.68;39.57
53011;BME280;42803;55.762;38.084;2023-05-29T08:41:58;99940.03;;;18.84;39.20
53011;BME280;42803;55.762;38.084;2023-05-29T08:44:48;99938.94;;;19.14;39.64
53011;BME280;42803;55.762;38.084;2023-05-29T08:47:19;99940.22;;;19.40;39.08
53011;BME280;42803;55.762;38.084;2023-05-29T08:49:52;99943.03;;;19.43;39.16
53011;BME280;42803;55.762;38.084;2023-05-29T08:52:23;99942.38;;;19.65;38.71
53011;BME280;42803;55.762;38.084;2023-05-29T08:54:54;99937.50;;;19.75;37.76
53011;BME280;42803;55.762;38.084;2023-05-29T08:57:23;99943.78;;;19.77;37.51
53011;BME280;42803;55.762;38.084;2023-05-29T08:59:55;99944.25;;;19.87;37.29
53011;BME280;42803;55.762;38.084;2023-05-29T09:02:26;99935.97;;;19.99;37.53
53011;BME280;42803;55.762;38.084;2023-05-29T09:04:57;99929.88;;;20.00;37.05
53011;BME280;42803;55.762;38.084;2023-05-29T09:07:26;99933.78;;;20.08;37.38
53011;BME280;42803;55.762;38.084;2023-05-29T09:09:55;99932.78;;;19.87;36.88
53011;BME280;42803;55.762;38.084;2023-05-29T09:12:26;99932.75;;;19.67;36.15
53011;BME280;42803;55.762;38.084;2023-05-29T09:14:55;99934.09;;;19.59;36.32
53011;BME280;42803;55.762;38.084;2023-05-29T09:17:30;99932.66;;;19.48;36.33
53011;BME280;42803;55.762;38.084;2023-05-29T09:20:00;99933.81;;;19.35;36.41
53011;BME280;42803;55.762;38.084;2023-05-29T09:22:33;99923.59;;;19.43;36.57
53011;BME280;42803;55.762;38.084;2023-05-29T09:25:03;99923.53;;;19.23;37.01
53011;BME280;42803;55.762;38.084;2023-05-29T09:27:32;99927.50;;;19.15;36.60
53011;BME280;42803;55.762;38.084;2023-05-29T09:30:01;99910.41;;;19.44;37.33
53011;BME280;42803;55.762;38.084;2023-05-29T09:32:33;99915.19;;;19.69;36.92
53011;BME280;42803;55.762;38.084;2023-05-29T09:35:03;99907.97;;;19.85;37.68
53011;BME280;42803;55.762;38.084;2023-05-29T09:37:32;99908.31;;;19.92;37.34
53011;BME280;42803;55.762;38.084;2023-05-29T09:40:03;99912.84;;;20.14;37.76
53011;BME280;42803;55.762;38.084;2023-05-29T09:42:37;99903.06;;;20.13;36.71
53011;BME280;42803;55.762;38.084;2023-05-29T09:45:07;99905.13;;;20.19;37.51
53011;BME280;42803;55.762;38.084;2023-05-29T09:47:56;99903.22;;;20.55;37.52
53011;BME280;42803;55.762;38.084;2023-05-29T09:50:25;99907.44;;;20.71;37.22
53011;BME280;42803;55.762;38.084;2023-05-29T09:52:56;99901.47;;;20.56;36.69
53011;BME280;42803;55.762;38.084;2023-05-29T09:55:29;99899.25;;;20.26;36.15
53011;BME280;42803;55.762;38.084;2023-05-29T09:58:00;99897.63;;;20.30;36.52
53011;BME280;42803;55.762;38.084;2023-05-29T10:00:30;99902.31;;;20.35;36.29
53011;BME280;42803;55.762;38.084;2023-05-29T10:03:01;99896.63;;;20.47;36.54
53011;BME280;42803;55.762;38.084;2023-05-29T10:05:31;99891.19;;;20.44;35.89
53011;BME280;42803;55.762;38.084;2023-05-29T10:08:02;99882.53;;;20.48;36.75
53011;BME280;42803;55.762;38.084;2023-05-29T10:10:55;99892.34;;;20.49;35.89
53011;BME280;42803;55.762;38.084;2023-05-29T10:13:32;99890.38;;;20.26;36.27
53011;BME280;42803;55.762;38.084;2023-05-29T10:16:06;99894.53;;;20.40;37.20
53011;BME280;42803;55.762;38.084;2023-05-29T10:18:39;99884.16;;;20.25;35.82
53011;BME280;42803;55.762;38.084;2023-05-29T10:21:12;99895.28;;;20.16;36.21
53011;BME280;42803;55.762;38.084;2023-05-29T10:23:44;99894.72;;;20.24;36.71
53011;BME280;42803;55.762;38.084;2023-05-29T10:26:19;99883.94;;;20.40;36.82
53011;BME280;42803;55.762;38.084;2023-05-29T10:28:54;99881.41;;;20.62;36.56
53011;BME280;42803;55.762;38.084;2023-05-29T10:31:28;99879.94;;;20.69;35.75
53011;BME280;42803;55.762;38.084;2023-05-29T10:34:10;99882.59;;;20.90;36.29
53011;BME280;42803;55.762;38.084;2023-05-29T10:36:46;99868.88;;;21.00;36.09
53011;BME280;42803;55.762;38.084;2023-05-29T10:39:20;99886.47;;;20.98;35.52
53011;BME280;42803;55.762;38.084;2023-05-29T10:41:49;99860.19;;;21.04;36.01
53011;BME280;42803;55.762;38.084;2023-05-29T10:44:38;99873.91;;;20.94;36.42
53011;BME280;42803;55.762;38.084;2023-05-29T10:47:12;99865.88;;;20.72;36.59
53011;BME280;42803;55.762;38.084;2023-05-29T10:49:50;99874.97;;;20.77;36.93
53011;BME280;42803;55.762;38.084;2023-05-29T10:52:20;99867.06;;;20.99;36.59
53011;BME280;42803;55.762;38.084;2023-05-29T10:54:52;99872.47;;;21.02;36.17
53011;BME280;42803;55.762;38.084;2023-05-29T10:57:22;99869.59;;;20.96;36.47
53011;BME280;42803;55.762;38.084;2023-05-29T10:59:59;99872.50;;;20.81;36.41
53011;BME280;42803;55.762;38.084;2023-05-29T11:02:29;99871.19;;;20.72;35.85
53011;BME280;42803;55.762;38.084;2023-05-29T11:05:20;99864.50;;;20.80;36.30
53011;BME280;42803;55.762;38.084;2023-05-29T11:07:52;99867.00;;;20.77;37.29
53011;BME280;42803;55.762;38.084;2023-05-29T11:10:41;99855.69;;;20.81;36.42
53011;BME280;42803;55.762;38.084;2023-05-29T11:13:10;99866.78;;;20.93;36.39
53011;BME280;42803;55.762;38.084;2023-05-29T11:15:40;99852.34;;;21.07;36.48
53011;BME280;42803;55.762;38.084;2023-05-29T11:18:11;99848.44;;;21.20;35.98
53011;BME280;42803;55.762;38.084;2023-05-29T11:20:50;99847.06;;;21.30;35.70
53011;BME280;42803;55.762;38.084;2023-05-29T11:23:22;99845.53;;;21.35;36.80
53011;BME280;42803;55.762;38.084;2023-05-29T11:26:19;99835.72;;;20.90;35.82
53011;BME280;42803;55.762;38.084;2023-05-29T11:28:49;99844.53;;;21.10;36.57
53011;BME280;42803;55.762;38.084;2023-05-29T11:31:19;99835.47;;;21.28;36.38
53011;BME280;42803;55.762;38.084;2023-05-29T11:33:50;99844.31;;;21.49;36.44
53011;BME280;42803;55.762;38.084;2023-05-29T11:36:26;99843.00;;;21.60;36.38
53011;BME280;42803;55.762;38.084;2023-05-29T11:38:56;99832.44;;;21.63;35.85
53011;BME280;42803;55.762;38.084;2023-05-29T11:41:25;99832.13;;;21.54;35.54
53011;BME280;42803;55.762;38.084;2023-05-29T11:43:58;99822.50;;;21.58;36.77
53011;BME280;42803;55.762;38.084;2023-05-29T11:46:29;99823.78;;;21.68;37.00
53011;BME280;42803;55.762;38.084;2023-05-29T11:49:01;99819.50;;;21.71;35.70
53011;BME280;42803;55.762;38.084;2023-05-29T11:51:31;99823.53;;;21.61;35.82
53011;BME280;42803;55.762;38.084;2023-05-29T11:54:00;99814.50;;;21.56;36.62
53011;BME280;42803;55.762;38.084;2023-05-29T11:56:30;99825.78;;;21.51;36.36
53011;BME280;42803;55.762;38.084;2023-05-29T11:58:59;99813.41;;;21.51;36.14
53011;BME280;42803;55.762;38.084;2023-05-29T12:01:29;99806.66;;;21.37;35.98
53011;BME280;42803;55.762;38.084;2023-05-29T12:04:14;99813.38;;;21.29;36.40
53011;BME280;42803;55.762;38.084;2023-05-29T12:06:45;99814.81;;;21.41;37.83
53011;BME280;42803;55.762;38.084;2023-05-29T12:09:25;99811.19;;;21.63;36.80
53011;BME280;42803;55.762;38.084;2023-05-29T12:12:01;99805.88;;;21.63;36.44
53011;BME280;42803;55.762;38.084;2023-05-29T12:14:32;99809.97;;;21.78;36.38
53011;BME280;42803;55.762;38.084;2023-05-29T12:17:01;99804.72;;;21.79;36.60
53011;BME280;42803;55.762;38.084;2023-05-29T12:19:31;99806.06;;;21.92;36.10
53011;BME280;42803;55.762;38.084;2023-05-29T12:22:01;99801.81;;;21.97;35.95
53011;BME280;42803;55.762;38.084;2023-05-29T12:24:31;99799.69;;;21.87;36.19
53011;BME280;42803;55.762;38.084;2023-05-29T12:27:17;99793.25;;;21.56;36.89
53011;BME280;42803;55.762;38.084;2023-05-29T12:30:06;99793.56;;;21.41;36.81
53011;BME280;42803;55.762;38.084;2023-05-29T12:32:38;99795.38;;;21.42;36.65
53011;BME280;42803;55.762;38.084;2023-05-29T12:35:12;99790.19;;;21.25;35.78
53011;BME280;42803;55.762;38.084;2023-05-29T12:37:44;99789.97;;;21.18;35.20
53011;BME280;42803;55.762;38.084;2023-05-29T12:40:15;99786.81;;;21.29;35.74
53011;BME280;42803;55.762;38.084;2023-05-29T12:42:46;99778.22;;;21.34;35.85
53011;BME280;42803;55.762;38.084;2023-05-29T12:45:17;99789.59;;;21.09;36.30
53011;BME280;42803;55.762;38.084;2023-05-29T12:47:50;99787.19;;;20.93;36.54
53011;BME280;42803;55.762;38.084;2023-05-29T12:50:24;99788.69;;;20.86;35.96
53011;BME280;42803;55.762;38.084;2023-05-29T12:52:57;99780.22;;;20.95;37.46
53011;BME280;42803;55.762;38.084;2023-05-29T12:55:28;99782.22;;;21.25;37.73
53011;BME280;42803;55.762;38.084;2023-05-29T12:57:57;99782.78;;;21.37;37.33
53011;BME280;42803;55.762;38.084;2023-05-29T13:00:27;99782.50;;;21.53;37.65
53011;BME280;42803;55.762;38.084;2023-05-29T13:02:56;99778.63;;;21.68;36.82
53011;BME280;42803;55.762;38.084;2023-05-29T13:05:26;99791.22;;;21.73;37.11
53011;BME280;42803;55.762;38.084;2023-05-29T13:07:57;99786.47;;;21.64;36.83
53011;BME280;42803;55.762;38.084;2023-05-29T13:10:27;99789.00;;;21.61;37.15
53011;BME280;42803;55.762;38.084;2023-05-29T13:12:57;99786.22;;;21.58;36.77
53011;BME280;42803;55.762;38.084;2023-05-29T13:15:26;99785.03;;;21.50;36.34
53011;BME280;42803;55.762;38.084;2023-05-29T13:17:56;99775.69;;;21.37;36.35
53011;BME280;42803;55.762;38.084;2023-05-29T13:20:26;99782.63;;;21.56;36.00
53011;BME280;42803;55.762;38.084;2023-05-29T13:22:58;99782.94;;;21.65;36.42
53011;BME280;42803;55.762;38.084;2023-05-29T13:25:27;99780.81;;;21.79;36.29